sensor_id;sensor_type;location;lat;lon;timestamp;P1;durP1;ratioP1;P2;durP2;ratioP2
4422;SDS011;2224;49.814;8.650;2022-10-16T00:01:04;4.90;;;3.50;;
4422;SDS011;2224;49.814;8.650;2022-10-16T00:03:39;3.83;;;3.53;;
4422;SDS011;2224;49.814;8.650;2022-10-16T00:06:05;4.20;;;3.80;;
4422;SDS011;2224;49.814;8.650;2022-10-16T00:08:30;3.73;;;3.27;;
4422;SDS011;2224;49.814;8.650;2022-10-16T00:11:00;5.13;;;3.80;;
4422;SDS011;2224;49.814;8.650;2022-10-16T00:13:26;4.10;;;3.20;;
4422;SDS011;2224;49.814;8.650;2022-10-16T00:15:54;3.93;;;3.30;;
4422;SDS011;2224;49.814;8.650;2022-10-16T00:18:20;3.93;;;3.53;;
4422;SDS011;2224;49.814;8.650;2022-10-16T00:20:46;4.30;;;3.90;;
4422;SDS011;2224;49.814;8.650;2022-10-16T00:23:11;3.67;;;3.37;;
4422;SDS011;2224;49.814;8.650;2022-10-16T00:25:36;3.60;;;3.30;;
4422;SDS011;2224;49.814;8.650;2022-10-16T00:28:02;5.53;;;3.83;;
4422;SDS011;2224;49.814;8.650;2022-10-16T00:30:27;3.70;;;3.07;;
4422;SDS011;2224;49.814;8.650;2022-10-16T00:32:53;3.73;;;3.03;;
4422;SDS011;2224;49.814;8.650;2022-10-16T00:35:19;3.07;;;2.47;;
4422;SDS011;2224;49.814;8.650;2022-10-16T00:37:44;3.87;;;3.47;;
4422;SDS011;2224;49.814;8.650;2022-10-16T00:40:09;3.53;;;3.17;;
4422;SDS011;2224;49.814;8.650;2022-10-16T00:42:35;4.10;;;3.20;;
4422;SDS011;2224;49.814;8.650;2022-10-16T00:45:00;2.50;;;2.30;;
4422;SDS011;2224;49.814;8.650;2022-10-16T00:47:30;2.00;;;1.80;;
4422;SDS011;2224;49.814;8.650;2022-10-16T00:50:00;2.63;;;1.87;;
4422;SDS011;2224;49.814;8.650;2022-10-16T00:52:30;2.47;;;2.27;;
4422;SDS011;2224;49.814;8.650;2022-10-16T00:54:55;2.00;;;1.50;;
4422;SDS011;2224;49.814;8.650;2022-10-16T00:57:21;1.93;;;1.67;;
4422;SDS011;2224;49.814;8.650;2022-10-16T00:59:47;1.60;;;1.50;;
4422;SDS011;2224;49.814;8.650;2022-10-16T01:02:13;1.53;;;1.43;;
4422;SDS011;2224;49.814;8.650;2022-10-16T01:04:44;1.30;;;1.20;;
4422;SDS011;2224;49.814;8.650;2022-10-16T01:12:46;1.80;;;1.23;;
4422;SDS011;2224;49.814;8.650;2022-10-16T01:15:25;1.30;;;1.20;;
4422;SDS011;2224;49.814;8.650;2022-10-16T01:18:07;1.43;;;1.33;;
4422;SDS011;2224;49.814;8.650;2022-10-16T01:20:42;2.10;;;1.20;;
4422;SDS011;2224;49.814;8.650;2022-10-16T01:28:39;2.83;;;1.00;;
4422;SDS011;2224;49.814;8.650;2022-10-16T01:31:10;4.70;;;1.50;;
4422;SDS011;2224;49.814;8.650;2022-10-16T01:33:40;2.60;;;1.77;;
4422;SDS011;2224;49.814;8.650;2022-10-16T01:36:09;1.70;;;1.60;;
4422;SDS011;2224;49.814;8.650;2022-10-16T01:38:40;2.10;;;1.90;;
4422;SDS011;2224;49.814;8.650;2022-10-16T01:41:08;2.70;;;1.50;;
4422;SDS011;2224;49.814;8.650;2022-10-16T01:43:38;1.47;;;1.37;;
4422;SDS011;2224;49.814;8.650;2022-10-16T01:46:06;1.93;;;1.50;;
4422;SDS011;2224;49.814;8.650;2022-10-16T01:48:32;4.60;;;1.90;;
4422;SDS011;2224;49.814;8.650;2022-10-16T01:51:04;1.50;;;1.40;;
4422;SDS011;2224;49.814;8.650;2022-10-16T01:53:31;3.53;;;1.40;;
4422;SDS011;2224;49.814;8.650;2022-10-16T01:55:57;2.67;;;1.87;;
4422;SDS011;2224;49.814;8.650;2022-10-16T01:58:23;1.90;;;1.80;;
4422;SDS011;2224;49.814;8.650;2022-10-16T02:00:50;3.50;;;2.33;;
4422;SDS011;2224;49.814;8.650;2022-10-16T02:03:17;2.47;;;2.23;;
4422;SDS011;2224;49.814;8.650;2022-10-16T02:05:54;2.43;;;2.23;;
4422;SDS011;2224;49.814;8.650;2022-10-16T02:08:20;2.37;;;2.17;;
4422;SDS011;2224;49.814;8.650;2022-10-16T02:10:48;3.17;;;2.50;;
4422;SDS011;2224;49.814;8.650;2022-10-16T02:13:14;4.47;;;2.90;;
4422;SDS011;2224;49.814;8.650;2022-10-16T02:15:42;3.60;;;3.27;;
4422;SDS011;2224;49.814;8.650;2022-10-16T02:18:07;3.90;;;3.13;;
4422;SDS011;2224;49.814;8.650;2022-10-16T02:20:36;4.43;;;3.63;;
4422;SDS011;2224;49.814;8.650;2022-10-16T02:23:09;3.70;;;3.37;;
4422;SDS011;2224;49.814;8.650;2022-10-16T02:25:37;4.20;;;3.80;;
4422;SDS011;2224;49.814;8.650;2022-10-16T02:28:09;3.73;;;3.43;;
4422;SDS011;2224;49.814;8.650;2022-10-16T02:33:22;3.90;;;3.60;;
4422;SDS011;2224;49.814;8.650;2022-10-16T02:35:49;5.00;;;4.60;;
4422;SDS011;2224;49.814;8.650;2022-10-16T02:38:15;4.20;;;3.90;;
4422;SDS011;2224;49.814;8.650;2022-10-16T02:40:41;3.90;;;3.60;;
4422;SDS011;2224;49.814;8.650;2022-10-16T02:43:07;5.17;;;4.50;;
4422;SDS011;2224;49.814;8.650;2022-10-16T02:45:33;6.93;;;4.37;;
4422;SDS011;2224;49.814;8.650;2022-10-16T02:47:59;7.43;;;5.80;;
4422;SDS011;2224;49.814;8.650;2022-10-16T02:50:24;6.37;;;5.80;;
4422;SDS011;2224;49.814;8.650;2022-10-16T02:52:50;6.80;;;5.80;;
4422;SDS011;2224;49.814;8.650;2022-10-16T02:55:15;7.07;;;5.73;;
4422;SDS011;2224;49.814;8.650;2022-10-16T02:57:40;12.17;;;6.60;;
4422;SDS011;2224;49.814;8.650;2022-10-16T03:00:07;7.13;;;5.77;;
4422;SDS011;2224;49.814;8.650;2022-10-16T03:02:33;8.47;;;7.30;;
4422;SDS011;2224;49.814;8.650;2022-10-16T03:04:59;11.63;;;7.43;;
4422;SDS011;2224;49.814;8.650;2022-10-16T03:07:24;9.23;;;7.60;;
4422;SDS011;2224;49.814;8.650;2022-10-16T03:09:49;8.20;;;7.40;;
4422;SDS011;2224;49.814;8.650;2022-10-16T03:12:15;9.40;;;7.27;;
4422;SDS011;2224;49.814;8.650;2022-10-16T03:14:40;7.80;;;6.63;;
4422;SDS011;2224;49.814;8.650;2022-10-16T03:17:05;8.97;;;7.20;;
4422;SDS011;2224;49.814;8.650;2022-10-16T03:19:31;10.30;;;7.27;;
4422;SDS011;2224;49.814;8.650;2022-10-16T03:21:56;11.57;;;7.73;;
4422;SDS011;2224;49.814;8.650;2022-10-16T03:24:22;8.03;;;7.00;;
4422;SDS011;2224;49.814;8.650;2022-10-16T03:26:47;9.50;;;6.70;;
4422;SDS011;2224;49.814;8.650;2022-10-16T03:29:13;8.63;;;7.43;;
4422;SDS011;2224;49.814;8.650;2022-10-16T03:31:38;10.90;;;8.43;;
4422;SDS011;2224;49.814;8.650;2022-10-16T03:34:03;8.17;;;6.87;;
4422;SDS011;2224;49.814;8.650;2022-10-16T03:36:28;11.00;;;7.70;;
4422;SDS011;2224;49.814;8.650;2022-10-16T03:38:54;13.37;;;7.43;;
4422;SDS011;2224;49.814;8.650;2022-10-16T03:41:19;11.70;;;7.20;;
4422;SDS011;2224;49.814;8.650;2022-10-16T03:43:45;8.43;;;6.83;;
4422;SDS011;2224;49.814;8.650;2022-10-16T03:46:10;8.30;;;7.50;;
4422;SDS011;2224;49.814;8.650;2022-10-16T03:48:36;9.43;;;7.60;;
4422;SDS011;2224;49.814;8.650;2022-10-16T03:51:01;11.00;;;8.13;;
4422;SDS011;2224;49.814;8.650;2022-10-16T03:53:26;12.03;;;7.50;;
4422;SDS011;2224;49.814;8.650;2022-10-16T03:55:52;8.97;;;8.07;;
4422;SDS011;2224;49.814;8.650;2022-10-16T03:58:17;12.50;;;7.60;;
4422;SDS011;2224;49.814;8.650;2022-10-16T04:00:43;8.83;;;8.00;;
4422;SDS011;2224;49.814;8.650;2022-10-16T04:03:09;12.87;;;9.60;;
4422;SDS011;2224;49.814;8.650;2022-10-16T04:05:34;10.37;;;7.43;;
4422;SDS011;2224;49.814;8.650;2022-10-16T04:07:59;8.37;;;7.47;;
4422;SDS011;2224;49.814;8.650;2022-10-16T04:10:25;8.57;;;7.73;;
4422;SDS011;2224;49.814;8.650;2022-10-16T04:12:50;14.33;;;8.80;;
4422;SDS011;2224;49.814;8.650;2022-10-16T04:15:15;11.37;;;8.53;;
4422;SDS011;2224;49.814;8.650;2022-10-16T04:17:41;8.83;;;7.93;;
4422;SDS011;2224;49.814;8.650;2022-10-16T04:20:06;11.20;;;8.10;;
4422;SDS011;2224;49.814;8.650;2022-10-16T04:22:32;8.60;;;7.07;;
4422;SDS011;2224;49.814;8.650;2022-10-16T04:24:57;11.10;;;8.60;;
4422;SDS011;2224;49.814;8.650;2022-10-16T04:27:22;11.13;;;8.40;;
4422;SDS011;2224;49.814;8.650;2022-10-16T04:29:48;11.10;;;9.43;;
4422;SDS011;2224;49.814;8.650;2022-10-16T04:32:13;12.77;;;9.10;;
4422;SDS011;2224;49.814;8.650;2022-10-16T04:34:38;20.90;;;10.27;;
4422;SDS011;2224;49.814;8.650;2022-10-16T04:37:04;11.13;;;9.20;;
4422;SDS011;2224;49.814;8.650;2022-10-16T04:39:30;11.33;;;8.30;;
4422;SDS011;2224;49.814;8.650;2022-10-16T04:41:55;12.93;;;9.00;;
4422;SDS011;2224;49.814;8.650;2022-10-16T04:44:20;9.43;;;8.50;;
4422;SDS011;2224;49.814;8.650;2022-10-16T04:46:46;9.23;;;8.10;;
4422;SDS011;2224;49.814;8.650;2022-10-16T04:49:11;9.30;;;8.40;;
4422;SDS011;2224;49.814;8.650;2022-10-16T04:51:36;10.00;;;9.00;;
4422;SDS011;2224;49.814;8.650;2022-10-16T04:54:02;12.03;;;8.77;;
4422;SDS011;2224;49.814;8.650;2022-10-16T04:56:27;12.90;;;9.33;;
4422;SDS011;2224;49.814;8.650;2022-10-16T04:58:52;9.60;;;8.50;;
4422;SDS011;2224;49.814;8.650;2022-10-16T05:01:18;15.03;;;10.00;;
4422;SDS011;2224;49.814;8.650;2022-10-16T05:03:43;10.80;;;9.70;;
4422;SDS011;2224;49.814;8.650;2022-10-16T05:06:08;11.70;;;8.77;;
4422;SDS011;2224;49.814;8.650;2022-10-16T05:08:34;10.93;;;8.63;;
4422;SDS011;2224;49.814;8.650;2022-10-16T05:10:59;11.43;;;10.23;;
4422;SDS011;2224;49.814;8.650;2022-10-16T05:13:25;11.30;;;8.87;;
4422;SDS011;2224;49.814;8.650;2022-10-16T05:15:50;13.40;;;9.47;;
4422;SDS011;2224;49.814;8.650;2022-10-16T05:18:16;10.87;;;9.77;;
4422;SDS011;2224;49.814;8.650;2022-10-16T05:20:42;12.00;;;9.47;;
4422;SDS011;2224;49.814;8.650;2022-10-16T05:23:07;12.67;;;10.13;;
4422;SDS011;2224;49.814;8.650;2022-10-16T05:25:35;11.90;;;8.50;;
4422;SDS011;2224;49.814;8.650;2022-10-16T05:28:00;11.30;;;10.20;;
4422;SDS011;2224;49.814;8.650;2022-10-16T05:30:25;10.67;;;9.67;;
4422;SDS011;2224;49.814;8.650;2022-10-16T05:32:51;10.20;;;9.07;;
4422;SDS011;2224;49.814;8.650;2022-10-16T05:35:16;10.87;;;8.87;;
4422;SDS011;2224;49.814;8.650;2022-10-16T05:37:42;10.93;;;9.83;;
4422;SDS011;2224;49.814;8.650;2022-10-16T05:40:08;9.03;;;8.13;;
4422;SDS011;2224;49.814;8.650;2022-10-16T05:42:34;13.30;;;9.30;;
4422;SDS011;2224;49.814;8.650;2022-10-16T05:44:59;9.60;;;8.70;;
4422;SDS011;2224;49.814;8.650;2022-10-16T05:47:25;13.77;;;8.63;;
4422;SDS011;2224;49.814;8.650;2022-10-16T05:49:50;9.27;;;7.03;;
4422;SDS011;2224;49.814;8.650;2022-10-16T05:52:16;7.23;;;6.50;;
4422;SDS011;2224;49.814;8.650;2022-10-16T05:54:42;10.53;;;7.83;;
4422;SDS011;2224;49.814;8.650;2022-10-16T05:57:07;7.00;;;6.30;;
4422;SDS011;2224;49.814;8.650;2022-10-16T05:59:33;10.10;;;7.80;;
4422;SDS011;2224;49.814;8.650;2022-10-16T06:01:58;10.60;;;7.80;;
4422;SDS011;2224;49.814;8.650;2022-10-16T06:04:23;11.43;;;8.93;;
4422;SDS011;2224;49.814;8.650;2022-10-16T06:06:49;9.37;;;7.77;;
4422;SDS011;2224;49.814;8.650;2022-10-16T06:09:14;8.57;;;7.50;;
4422;SDS011;2224;49.814;8.650;2022-10-16T06:11:39;7.30;;;6.60;;
4422;SDS011;2224;49.814;8.650;2022-10-16T06:14:04;9.67;;;7.00;;
4422;SDS011;2224;49.814;8.650;2022-10-16T06:16:32;8.60;;;7.70;;
4422;SDS011;2224;49.814;8.650;2022-10-16T06:18:59;9.13;;;5.70;;
4422;SDS011;2224;49.814;8.650;2022-10-16T06:21:25;7.17;;;5.97;;
4422;SDS011;2224;49.814;8.650;2022-10-16T06:23:51;6.23;;;5.63;;
4422;SDS011;2224;49.814;8.650;2022-10-16T06:26:17;5.90;;;4.90;;
4422;SDS011;2224;49.814;8.650;2022-10-16T06:28:44;6.90;;;6.20;;
4422;SDS011;2224;49.814;8.650;2022-10-16T06:31:09;7.73;;;5.63;;
4422;SDS011;2224;49.814;8.650;2022-10-16T06:33:36;5.20;;;4.70;;
4422;SDS011;2224;49.814;8.650;2022-10-16T06:38:31;7.93;;;5.07;;
4422;SDS011;2224;49.814;8.650;2022-10-16T06:40:57;6.97;;;5.33;;
4422;SDS011;2224;49.814;8.650;2022-10-16T06:43:23;5.60;;;4.73;;
4422;SDS011;2224;49.814;8.650;2022-10-16T06:45:55;6.70;;;4.60;;
4422;SDS011;2224;49.814;8.650;2022-10-16T06:48:21;4.80;;;4.40;;
4422;SDS011;2224;49.814;8.650;2022-10-16T06:50:59;5.03;;;4.57;;
4422;SDS011;2224;49.814;8.650;2022-10-16T06:53:35;8.30;;;4.40;;
4422;SDS011;2224;49.814;8.650;2022-10-16T06:56:06;4.97;;;4.50;;
4422;SDS011;2224;49.814;8.650;2022-10-16T06:58:39;6.50;;;4.60;;
4422;SDS011;2224;49.814;8.650;2022-10-16T07:01:05;6.23;;;5.10;;
4422;SDS011;2224;49.814;8.650;2022-10-16T07:03:31;6.70;;;4.23;;
4422;SDS011;2224;49.814;8.650;2022-10-16T07:05:56;5.93;;;5.33;;
4422;SDS011;2224;49.814;8.650;2022-10-16T07:08:22;4.87;;;4.47;;
4422;SDS011;2224;49.814;8.650;2022-10-16T07:10:47;5.40;;;4.90;;
4422;SDS011;2224;49.814;8.650;2022-10-16T07:13:12;4.00;;;3.70;;
4422;SDS011;2224;49.814;8.650;2022-10-16T07:15:39;4.17;;;3.77;;
4422;SDS011;2224;49.814;8.650;2022-10-16T07:18:05;4.77;;;4.37;;
4422;SDS011;2224;49.814;8.650;2022-10-16T07:20:30;5.47;;;4.20;;
4422;SDS011;2224;49.814;8.650;2022-10-16T07:22:55;5.23;;;4.10;;
4422;SDS011;2224;49.814;8.650;2022-10-16T07:25:20;4.90;;;4.20;;
4422;SDS011;2224;49.814;8.650;2022-10-16T07:27:46;4.23;;;3.70;;
4422;SDS011;2224;49.814;8.650;2022-10-16T07:30:11;4.20;;;3.80;;
4422;SDS011;2224;49.814;8.650;2022-10-16T07:32:37;4.77;;;4.27;;
4422;SDS011;2224;49.814;8.650;2022-10-16T07:35:02;4.03;;;3.63;;
4422;SDS011;2224;49.814;8.650;2022-10-16T07:37:28;5.20;;;3.60;;
4422;SDS011;2224;49.814;8.650;2022-10-16T07:39:53;6.20;;;4.37;;
4422;SDS011;2224;49.814;8.650;2022-10-16T07:42:18;5.33;;;4.17;;
4422;SDS011;2224;49.814;8.650;2022-10-16T07:44:45;5.37;;;4.23;;
4422;SDS011;2224;49.814;8.650;2022-10-16T07:47:10;4.73;;;4.00;;
4422;SDS011;2224;49.814;8.650;2022-10-16T07:49:35;4.90;;;4.40;;
4422;SDS011;2224;49.814;8.650;2022-10-16T07:52:01;7.87;;;4.30;;
4422;SDS011;2224;49.814;8.650;2022-10-16T07:54:26;6.23;;;4.17;;
4422;SDS011;2224;49.814;8.650;2022-10-16T07:56:51;4.80;;;4.30;;
4422;SDS011;2224;49.814;8.650;2022-10-16T07:59:17;7.07;;;4.73;;
4422;SDS011;2224;49.814;8.650;2022-10-16T08:01:42;4.80;;;4.27;;
4422;SDS011;2224;49.814;8.650;2022-10-16T08:04:07;6.80;;;3.87;;
4422;SDS011;2224;49.814;8.650;2022-10-16T08:06:35;5.13;;;4.63;;
4422;SDS011;2224;49.814;8.650;2022-10-16T08:09:04;5.30;;;4.60;;
4422;SDS011;2224;49.814;8.650;2022-10-16T08:11:31;5.03;;;4.27;;
4422;SDS011;2224;49.814;8.650;2022-10-16T08:13:56;6.23;;;4.23;;
4422;SDS011;2224;49.814;8.650;2022-10-16T08:16:22;4.97;;;4.37;;
4422;SDS011;2224;49.814;8.650;2022-10-16T08:18:47;4.40;;;3.27;;
4422;SDS011;2224;49.814;8.650;2022-10-16T08:21:16;6.40;;;4.27;;
4422;SDS011;2224;49.814;8.650;2022-10-16T08:23:42;5.33;;;3.67;;
4422;SDS011;2224;49.814;8.650;2022-10-16T08:26:09;5.30;;;4.00;;
4422;SDS011;2224;49.814;8.650;2022-10-16T08:28:34;5.47;;;3.57;;
4422;SDS011;2224;49.814;8.650;2022-10-16T08:31:10;7.00;;;4.40;;
4422;SDS011;2224;49.814;8.650;2022-10-16T08:33:37;4.90;;;3.50;;
4422;SDS011;2224;49.814;8.650;2022-10-16T08:36:04;5.03;;;4.53;;
4422;SDS011;2224;49.814;8.650;2022-10-16T08:38:30;5.60;;;4.17;;
4422;SDS011;2224;49.814;8.650;2022-10-16T08:41:02;7.40;;;3.90;;
4422;SDS011;2224;49.814;8.650;2022-10-16T08:43:55;9.87;;;6.10;;
4422;SDS011;2224;49.814;8.650;2022-10-16T08:49:05;6.50;;;4.63;;
4422;SDS011;2224;49.814;8.650;2022-10-16T08:51:36;10.73;;;5.57;;
4422;SDS011;2224;49.814;8.650;2022-10-16T08:54:03;5.30;;;4.80;;
4422;SDS011;2224;49.814;8.650;2022-10-16T08:56:30;6.23;;;5.47;;
4422;SDS011;2224;49.814;8.650;2022-10-16T08:58:57;5.80;;;5.20;;
4422;SDS011;2224;49.814;8.650;2022-10-16T09:01:22;5.03;;;4.63;;
4422;SDS011;2224;49.814;8.650;2022-10-16T09:04:17;6.53;;;4.97;;
4422;SDS011;2224;49.814;8.650;2022-10-16T09:07:01;5.30;;;4.80;;
4422;SDS011;2224;49.814;8.650;2022-10-16T09:12:35;6.67;;;5.27;;
4422;SDS011;2224;49.814;8.650;2022-10-16T09:22:43;5.60;;;5.10;;
4422;SDS011;2224;49.814;8.650;2022-10-16T09:25:26;6.87;;;6.23;;
4422;SDS011;2224;49.814;8.650;2022-10-16T09:27:52;6.03;;;5.40;;
4422;SDS011;2224;49.814;8.650;2022-10-16T09:30:19;6.50;;;5.90;;
4422;SDS011;2224;49.814;8.650;2022-10-16T09:32:45;6.80;;;6.27;;
4422;SDS011;2224;49.814;8.650;2022-10-16T09:35:16;7.27;;;6.57;;
4422;SDS011;2224;49.814;8.650;2022-10-16T09:37:45;12.83;;;8.10;;
4422;SDS011;2224;49.814;8.650;2022-10-16T09:40:23;6.30;;;5.70;;
4422;SDS011;2224;49.814;8.650;2022-10-16T09:48:35;6.13;;;5.63;;
4422;SDS011;2224;49.814;8.650;2022-10-16T09:51:19;5.87;;;5.00;;
4422;SDS011;2224;49.814;8.650;2022-10-16T09:53:47;5.33;;;4.60;;
4422;SDS011;2224;49.814;8.650;2022-10-16T09:56:20;7.57;;;6.77;;
4422;SDS011;2224;49.814;8.650;2022-10-16T09:58:51;5.80;;;5.30;;
4422;SDS011;2224;49.814;8.650;2022-10-16T10:01:18;6.17;;;5.57;;
4422;SDS011;2224;49.814;8.650;2022-10-16T10:03:44;5.50;;;5.00;;
4422;SDS011;2224;49.814;8.650;2022-10-16T10:06:17;4.90;;;4.40;;
4422;SDS011;2224;49.814;8.650;2022-10-16T10:08:56;5.23;;;4.83;;
4422;SDS011;2224;49.814;8.650;2022-10-16T10:11:44;4.50;;;4.10;;
4422;SDS011;2224;49.814;8.650;2022-10-16T10:17:14;6.43;;;4.60;;
4422;SDS011;2224;49.814;8.650;2022-10-16T10:22:49;5.37;;;4.17;;
4422;SDS011;2224;49.814;8.650;2022-10-16T10:27:49;3.37;;;3.13;;
4422;SDS011;2224;49.814;8.650;2022-10-16T10:30:24;5.07;;;3.87;;
4422;SDS011;2224;49.814;8.650;2022-10-16T10:35:52;4.63;;;3.87;;
4422;SDS011;2224;49.814;8.650;2022-10-16T10:38:27;4.20;;;3.67;;
4422;SDS011;2224;49.814;8.650;2022-10-16T10:40:57;3.47;;;3.17;;
4422;SDS011;2224;49.814;8.650;2022-10-16T10:43:37;3.57;;;3.27;;
4422;SDS011;2224;49.814;8.650;2022-10-16T10:46:05;5.20;;;4.80;;
4422;SDS011;2224;49.814;8.650;2022-10-16T10:51:25;4.03;;;3.73;;
4422;SDS011;2224;49.814;8.650;2022-10-16T10:54:10;4.93;;;4.50;;
4422;SDS011;2224;49.814;8.650;2022-10-16T11:02:34;5.33;;;4.27;;
4422;SDS011;2224;49.814;8.650;2022-10-16T11:10:14;4.10;;;3.80;;
4422;SDS011;2224;49.814;8.650;2022-10-16T11:12:46;4.80;;;4.40;;
4422;SDS011;2224;49.814;8.650;2022-10-16T11:15:18;4.47;;;4.03;;
4422;SDS011;2224;49.814;8.650;2022-10-16T11:17:48;4.67;;;4.27;;
4422;SDS011;2224;49.814;8.650;2022-10-16T11:22:54;3.67;;;3.37;;
4422;SDS011;2224;49.814;8.650;2022-10-16T11:30:57;4.00;;;3.60;;
4422;SDS011;2224;49.814;8.650;2022-10-16T11:33:27;3.83;;;3.43;;
4422;SDS011;2224;49.814;8.650;2022-10-16T11:36:03;4.37;;;3.53;;
4422;SDS011;2224;49.814;8.650;2022-10-16T11:41:10;3.53;;;3.20;;
4422;SDS011;2224;49.814;8.650;2022-10-16T11:43:56;3.60;;;3.30;;
4422;SDS011;2224;49.814;8.650;2022-10-16T11:46:25;6.60;;;3.40;;
4422;SDS011;2224;49.814;8.650;2022-10-16T11:51:31;3.37;;;3.07;;
4422;SDS011;2224;49.814;8.650;2022-10-16T11:56:52;2.83;;;2.63;;
4422;SDS011;2224;49.814;8.650;2022-10-16T11:59:26;3.40;;;3.10;;
4422;SDS011;2224;49.814;8.650;2022-10-16T12:02:20;4.00;;;3.53;;
4422;SDS011;2224;49.814;8.650;2022-10-16T12:04:49;4.10;;;3.13;;
4422;SDS011;2224;49.814;8.650;2022-10-16T12:07:19;3.23;;;2.93;;
4422;SDS011;2224;49.814;8.650;2022-10-16T12:09:47;3.00;;;2.80;;
4422;SDS011;2224;49.814;8.650;2022-10-16T12:12:26;3.23;;;3.03;;
4422;SDS011;2224;49.814;8.650;2022-10-16T12:15:00;3.67;;;3.37;;
4422;SDS011;2224;49.814;8.650;2022-10-16T12:17:34;3.30;;;3.00;;
4422;SDS011;2224;49.814;8.650;2022-10-16T12:22:40;4.37;;;3.30;;
4422;SDS011;2224;49.814;8.650;2022-10-16T12:25:29;3.50;;;3.10;;
4422;SDS011;2224;49.814;8.650;2022-10-16T12:30:40;4.93;;;3.90;;
4422;SDS011;2224;49.814;8.650;2022-10-16T12:33:06;4.70;;;3.60;;
4422;SDS011;2224;49.814;8.650;2022-10-16T12:35:48;3.20;;;2.90;;
4422;SDS011;2224;49.814;8.650;2022-10-16T12:38:18;3.70;;;3.40;;
4422;SDS011;2224;49.814;8.650;2022-10-16T12:40:54;4.43;;;3.77;;
4422;SDS011;2224;49.814;8.650;2022-10-16T12:46:04;4.50;;;4.10;;
4422;SDS011;2224;49.814;8.650;2022-10-16T12:48:32;4.27;;;3.87;;
4422;SDS011;2224;49.814;8.650;2022-10-16T12:51:09;4.43;;;4.03;;
4422;SDS011;2224;49.814;8.650;2022-10-16T12:53:37;6.60;;;4.17;;
4422;SDS011;2224;49.814;8.650;2022-10-16T12:56:11;3.70;;;3.40;;
4422;SDS011;2224;49.814;8.650;2022-10-16T13:01:37;4.13;;;3.80;;
4422;SDS011;2224;49.814;8.650;2022-10-16T13:04:14;4.13;;;3.70;;
4422;SDS011;2224;49.814;8.650;2022-10-16T13:06:52;3.90;;;3.60;;
4422;SDS011;2224;49.814;8.650;2022-10-16T13:14:58;5.20;;;4.63;;
4422;SDS011;2224;49.814;8.650;2022-10-16T13:20:20;4.57;;;4.10;;
4422;SDS011;2224;49.814;8.650;2022-10-16T13:23:04;6.20;;;4.90;;
4422;SDS011;2224;49.814;8.650;2022-10-16T13:25:41;5.57;;;4.87;;
4422;SDS011;2224;49.814;8.650;2022-10-16T13:28:10;4.70;;;4.30;;
4422;SDS011;2224;49.814;8.650;2022-10-16T13:33:15;4.97;;;4.57;;
4422;SDS011;2224;49.814;8.650;2022-10-16T13:35:48;5.23;;;4.80;;
4422;SDS011;2224;49.814;8.650;2022-10-16T13:38:18;6.33;;;4.40;;
4422;SDS011;2224;49.814;8.650;2022-10-16T13:40:48;5.50;;;5.10;;
4422;SDS011;2224;49.814;8.650;2022-10-16T13:43:20;5.37;;;4.97;;
4422;SDS011;2224;49.814;8.650;2022-10-16T13:45:53;5.17;;;4.67;;
4422;SDS011;2224;49.814;8.650;2022-10-16T13:48:25;5.60;;;5.20;;
4422;SDS011;2224;49.814;8.650;2022-10-16T13:51:01;4.67;;;4.27;;
4422;SDS011;2224;49.814;8.650;2022-10-16T13:53:39;6.27;;;5.43;;
4422;SDS011;2224;49.814;8.650;2022-10-16T13:56:07;5.10;;;4.70;;
4422;SDS011;2224;49.814;8.650;2022-10-16T13:58:35;5.73;;;5.23;;
4422;SDS011;2224;49.814;8.650;2022-10-16T14:01:01;6.20;;;5.70;;
4422;SDS011;2224;49.814;8.650;2022-10-16T14:03:30;5.37;;;4.77;;
4422;SDS011;2224;49.814;8.650;2022-10-16T14:05:57;5.63;;;5.07;;
4422;SDS011;2224;49.814;8.650;2022-10-16T14:08:24;6.40;;;5.80;;
4422;SDS011;2224;49.814;8.650;2022-10-16T14:10:51;6.60;;;6.10;;
4422;SDS011;2224;49.814;8.650;2022-10-16T14:13:30;6.40;;;5.90;;
4422;SDS011;2224;49.814;8.650;2022-10-16T14:15:58;6.37;;;5.77;;
4422;SDS011;2224;49.814;8.650;2022-10-16T14:18:25;6.03;;;5.50;;
4422;SDS011;2224;49.814;8.650;2022-10-16T14:20:52;6.33;;;5.10;;
4422;SDS011;2224;49.814;8.650;2022-10-16T14:23:28;4.97;;;4.57;;
4422;SDS011;2224;49.814;8.650;2022-10-16T14:26:05;5.60;;;5.10;;
4422;SDS011;2224;49.814;8.650;2022-10-16T14:28:41;7.87;;;5.13;;
4422;SDS011;2224;49.814;8.650;2022-10-16T14:31:53;6.37;;;5.70;;
4422;SDS011;2224;49.814;8.650;2022-10-16T14:33:56;6.17;;;5.57;;
4422;SDS011;2224;49.814;8.650;2022-10-16T14:36:22;6.27;;;5.67;;
4422;SDS011;2224;49.814;8.650;2022-10-16T14:38:51;5.57;;;5.07;;
4422;SDS011;2224;49.814;8.650;2022-10-16T14:41:28;7.30;;;6.00;;
4422;SDS011;2224;49.814;8.650;2022-10-16T14:44:01;5.57;;;4.97;;
4422;SDS011;2224;49.814;8.650;2022-10-16T14:46:29;4.90;;;4.50;;
4422;SDS011;2224;49.814;8.650;2022-10-16T14:49:16;4.47;;;3.87;;
4422;SDS011;2224;49.814;8.650;2022-10-16T14:51:44;3.80;;;3.50;;
4422;SDS011;2224;49.814;8.650;2022-10-16T14:54:11;4.70;;;4.30;;
4422;SDS011;2224;49.814;8.650;2022-10-16T14:56:50;5.00;;;4.60;;
4422;SDS011;2224;49.814;8.650;2022-10-16T14:59:19;4.70;;;3.90;;
4422;SDS011;2224;49.814;8.650;2022-10-16T15:01:50;3.97;;;3.57;;
4422;SDS011;2224;49.814;8.650;2022-10-16T15:04:16;4.30;;;3.90;;
4422;SDS011;2224;49.814;8.650;2022-10-16T15:06:41;4.80;;;4.30;;
4422;SDS011;2224;49.814;8.650;2022-10-16T15:09:07;5.20;;;4.43;;
4422;SDS011;2224;49.814;8.650;2022-10-16T15:11:32;5.93;;;4.50;;
4422;SDS011;2224;49.814;8.650;2022-10-16T15:13:57;4.37;;;4.07;;
4422;SDS011;2224;49.814;8.650;2022-10-16T15:16:23;4.83;;;4.33;;
4422;SDS011;2224;49.814;8.650;2022-10-16T15:18:48;6.47;;;5.50;;
4422;SDS011;2224;49.814;8.650;2022-10-16T15:21:19;5.33;;;4.83;;
4422;SDS011;2224;49.814;8.650;2022-10-16T15:23:49;5.10;;;4.70;;
4422;SDS011;2224;49.814;8.650;2022-10-16T15:26:15;9.83;;;5.33;;
4422;SDS011;2224;49.814;8.650;2022-10-16T15:28:40;5.60;;;4.70;;
4422;SDS011;2224;49.814;8.650;2022-10-16T15:31:05;6.50;;;4.53;;
4422;SDS011;2224;49.814;8.650;2022-10-16T15:33:31;5.53;;;4.80;;
4422;SDS011;2224;49.814;8.650;2022-10-16T15:35:59;5.83;;;5.30;;
4422;SDS011;2224;49.814;8.650;2022-10-16T15:38:25;6.03;;;5.37;;
4422;SDS011;2224;49.814;8.650;2022-10-16T15:40:51;6.53;;;6.03;;
4422;SDS011;2224;49.814;8.650;2022-10-16T15:43:16;6.10;;;5.50;;
4422;SDS011;2224;49.814;8.650;2022-10-16T15:45:43;6.60;;;6.00;;
4422;SDS011;2224;49.814;8.650;2022-10-16T15:48:10;6.30;;;5.70;;
4422;SDS011;2224;49.814;8.650;2022-10-16T15:50:39;6.33;;;5.73;;
4422;SDS011;2224;49.814;8.650;2022-10-16T15:53:05;11.10;;;6.77;;
4422;SDS011;2224;49.814;8.650;2022-10-16T15:55:30;6.73;;;6.10;;
4422;SDS011;2224;49.814;8.650;2022-10-16T15:57:56;6.73;;;6.07;;
4422;SDS011;2224;49.814;8.650;2022-10-16T16:00:21;7.63;;;5.97;;
4422;SDS011;2224;49.814;8.650;2022-10-16T16:02:51;7.07;;;6.30;;
4422;SDS011;2224;49.814;8.650;2022-10-16T16:05:17;6.57;;;6.03;;
4422;SDS011;2224;49.814;8.650;2022-10-16T16:07:43;7.10;;;6.40;;
4422;SDS011;2224;49.814;8.650;2022-10-16T16:10:10;7.60;;;6.17;;
4422;SDS011;2224;49.814;8.650;2022-10-16T16:12:36;6.57;;;6.07;;
4422;SDS011;2224;49.814;8.650;2022-10-16T16:15:02;7.60;;;6.20;;
4422;SDS011;2224;49.814;8.650;2022-10-16T16:17:29;8.93;;;7.63;;
4422;SDS011;2224;49.814;8.650;2022-10-16T16:19:55;9.10;;;7.60;;
4422;SDS011;2224;49.814;8.650;2022-10-16T16:22:20;7.57;;;6.87;;
4422;SDS011;2224;49.814;8.650;2022-10-16T16:24:46;7.80;;;6.50;;
4422;SDS011;2224;49.814;8.650;2022-10-16T16:27:11;9.57;;;6.53;;
4422;SDS011;2224;49.814;8.650;2022-10-16T16:29:38;7.47;;;6.37;;
4422;SDS011;2224;49.814;8.650;2022-10-16T16:32:03;9.93;;;6.93;;
4422;SDS011;2224;49.814;8.650;2022-10-16T16:34:29;10.30;;;7.33;;
4422;SDS011;2224;49.814;8.650;2022-10-16T16:36:55;8.33;;;7.53;;
4422;SDS011;2224;49.814;8.650;2022-10-16T16:39:20;8.27;;;7.47;;
4422;SDS011;2224;49.814;8.650;2022-10-16T16:41:46;8.13;;;7.33;;
4422;SDS011;2224;49.814;8.650;2022-10-16T16:44:12;6.93;;;6.33;;
4422;SDS011;2224;49.814;8.650;2022-10-16T16:46:37;8.07;;;7.33;;
4422;SDS011;2224;49.814;8.650;2022-10-16T16:49:04;7.90;;;7.17;;
4422;SDS011;2224;49.814;8.650;2022-10-16T16:51:30;8.70;;;8.00;;
4422;SDS011;2224;49.814;8.650;2022-10-16T16:53:56;8.60;;;7.60;;
4422;SDS011;2224;49.814;8.650;2022-10-16T16:56:21;7.17;;;6.57;;
4422;SDS011;2224;49.814;8.650;2022-10-16T16:58:48;11.90;;;9.47;;